Orlando International Airport
KMCO : now visible

Airfield :











YOU CAN JOIN US ON...

 
LOGIN :

Register | Disclaimer

   EN    FR    IT 

 









Legend :    VFR   Marginal VFR   IFR   Intensive IFR   Very Intensive IFR
Visi :
Ceiling :
>= 8 km
>= 3000ft
5 to 8 km
1000 to 3000 ft
1500m to 5 km
500 to 1000 ft
800 to 1500m
200 to 500 ft
< 800m
< 200 ft
Symbols :   Thunderstorms  Fog  Heavy snow  Heavy precipitations  Wind > 20 kt






- Airport Elevation : 96 ft
- IATA code : MCO


KMCO - Orlando International

CURRENT METAR :
  • 190753Z 07008KT 10SM SCT017 SCT030 24/23 A3000 RMK AO2 SLP157 T02390228

EXPIRED METARs :
  • 190653Z 06010KT 10SM FEW013 SCT025 24/23 A3001 RMK AO2 SLP159 T02440233
  • 190553Z 07008KT 10SM SCT017 24/23 A3002 RMK AO2 SLP164 T02440228 10250 20244 58003
  • 190453Z 08011KT 10SM FEW016 24/23 A3003 RMK AO2 SLP169 T02440228 403170228
  • 190353Z 07007KT 10SM SCT019 SCT130 25/23 A3003 RMK AO2 SLP168 T02500233

TAF KMCO
Valid from the 19 at 06:00 until the 20 at 12:00 UTC


190536Z 1906/2012 07012KT P6SM SCT015 BKN050
FM190800 07010KT P6SM VCSH SCT020 BKN040
FM191300 08015G24KT P6SM VCSH SCT025 BKN035
FM191700 09020G28KT P6SM VCSH BKN035
FM200100 06012KT P6SM VCSH BKN035
FM200400 06010KT P6SM SCT035
KZMA FIR / North America



MET'MAP, your aeronautical weather chart ! - Copyright ORBIFLY December 2007 - Disclaimer

ORBIFLY MET'MAP TEAM :

Programming & Development : Alexandra Zaïnal
Original concept : Baudouin d'Aumeries
Technical & hardware support : Manuel Goepfert
Assistance : Marc-Olivier Méhu




SOURCES & CREDITS :

   NOAA       Earth
Advisory